createdAt,value
2018-12-16T00:00:35.531Z,17.20
2018-12-16T00:01:14.949Z,18.10
2018-12-16T00:01:49.604Z,17.57
2018-12-16T00:02:24.324Z,16.90
2018-12-16T00:02:59.361Z,16.02
2018-12-16T00:03:33.971Z,17.27
2018-12-16T00:04:08.936Z,18.40
2018-12-16T00:04:49.919Z,18.27
2018-12-16T00:05:21.444Z,17.10
2018-12-16T00:05:56.133Z,18.20
2018-12-16T00:06:30.841Z,16.87
2018-12-16T00:07:05.441Z,17.13
2018-12-16T00:07:40.221Z,17.17
2018-12-16T00:08:14.940Z,18.67
2018-12-16T00:08:49.619Z,16.83
2018-12-16T00:09:24.548Z,17.73
2018-12-16T00:09:59.225Z,16.67
2018-12-16T00:10:33.878Z,18.00
2018-12-16T00:11:08.694Z,17.33
2018-12-16T00:11:43.531Z,16.00
2018-12-16T00:12:18.247Z,17.27
2018-12-16T00:12:52.939Z,18.10
2018-12-16T00:13:27.635Z,17.30
2018-12-16T00:14:02.348Z,17.50
2018-12-16T00:14:37.102Z,16.90
2018-12-16T00:15:12.099Z,16.80
2018-12-16T00:15:46.842Z,16.93
2018-12-16T00:16:21.461Z,17.77
2018-12-16T00:16:56.235Z,18.03
2018-12-16T00:17:30.988Z,17.60
2018-12-16T00:18:05.654Z,17.23
2018-12-16T00:18:40.445Z,17.83
2018-12-16T00:19:15.450Z,18.63
2018-12-16T00:19:50.250Z,17.60
2018-12-16T00:20:24.903Z,18.20
2018-12-16T00:20:59.550Z,16.87
2018-12-16T00:21:34.197Z,17.63
2018-12-16T00:22:09.184Z,16.97
2018-12-16T00:22:44.511Z,16.80
2018-12-16T00:23:19.176Z,17.73
2018-12-16T00:23:53.862Z,17.57
2018-12-16T00:24:28.507Z,16.43
2018-12-16T00:25:03.434Z,17.73
2018-12-16T00:25:38.115Z,17.83
2018-12-16T00:26:15.778Z,16.30
2018-12-16T00:27:01.664Z,16.27
2018-12-16T00:27:36.286Z,17.13
2018-12-16T00:28:11.398Z,17.93
2018-12-16T00:28:46.210Z,17.37
2018-12-16T00:29:21.304Z,18.27
2018-12-16T00:29:56.013Z,17.40
2018-12-16T00:30:30.636Z,17.97
2018-12-16T00:31:05.247Z,16.23
2018-12-16T00:31:40.187Z,16.53
2018-12-16T00:32:14.887Z,17.73
2018-12-16T00:32:49.548Z,16.50
2018-12-16T00:33:24.348Z,17.23
2018-12-16T00:33:58.998Z,17.43
2018-12-16T00:34:33.674Z,17.67
2018-12-16T00:35:08.846Z,17.90
2018-12-16T00:35:43.602Z,17.10
2018-12-16T00:36:18.487Z,17.07
2018-12-16T00:36:53.116Z,17.03
2018-12-16T00:37:28.040Z,18.43
2018-12-16T00:38:02.987Z,16.80
2018-12-16T00:38:37.649Z,17.10
2018-12-16T00:39:12.714Z,16.37
2018-12-16T00:39:47.544Z,17.53
2018-12-16T00:40:22.226Z,16.87
2018-12-16T00:40:56.847Z,17.67
2018-12-16T00:41:31.484Z,17.37
2018-12-16T00:42:06.167Z,18.23
2018-12-16T00:42:40.857Z,17.67
2018-12-16T00:43:15.674Z,17.23
2018-12-16T00:43:50.310Z,17.73
2018-12-16T00:44:24.964Z,17.47
2018-12-16T00:44:59.604Z,18.53
2018-12-16T00:45:34.448Z,18.23
2018-12-16T00:46:09.181Z,17.83
2018-12-16T00:46:43.959Z,17.90
2018-12-16T00:47:18.624Z,17.53
2018-12-16T00:47:53.287Z,18.13
2018-12-16T00:48:27.912Z,19.03
2018-12-16T00:49:02.524Z,18.40
2018-12-16T00:49:37.150Z,17.53
2018-12-16T00:50:12.044Z,17.33
2018-12-16T00:50:46.846Z,18.33
2018-12-16T00:51:21.677Z,17.43
2018-12-16T00:51:57.327Z,17.17
2018-12-16T00:52:36.451Z,17.80
2018-12-16T00:53:08.647Z,18.03
2018-12-16T00:53:43.510Z,17.67
2018-12-16T00:54:18.192Z,17.70
2018-12-16T00:54:52.829Z,17.57
2018-12-16T00:55:27.451Z,17.40
2018-12-16T00:56:02.155Z,17.10
2018-12-16T00:56:36.785Z,17.63
2018-12-16T00:57:11.625Z,17.83
2018-12-16T00:57:46.428Z,16.83
2018-12-16T00:58:21.094Z,17.80
2018-12-16T00:58:55.685Z,17.33
2018-12-16T00:59:30.303Z,18.63
2018-12-16T01:00:10.052Z,17.57
2018-12-16T01:00:45.210Z,16.90
2018-12-16T01:01:20.565Z,17.50
2018-12-16T01:01:55.201Z,18.03
2018-12-16T01:02:35.013Z,17.17
2018-12-16T01:03:10.118Z,16.77
2018-12-16T01:03:44.900Z,19.03
2018-12-16T01:04:20.841Z,18.93
2018-12-16T01:04:55.709Z,17.23
2018-12-16T01:05:30.601Z,17.90
2018-12-16T01:06:06.118Z,19.23
2018-12-16T01:06:40.819Z,17.80
2018-12-16T01:07:15.485Z,17.83
2018-12-16T01:07:51.012Z,18.37
2018-12-16T01:08:26.566Z,17.53
2018-12-16T01:09:01.256Z,17.30
2018-12-16T01:09:35.900Z,18.43
2018-12-16T01:10:12.126Z,19.17
2018-12-16T01:10:46.846Z,18.33
2018-12-16T01:11:21.603Z,17.53
2018-12-16T01:11:56.385Z,17.43
2018-12-16T01:12:31.240Z,18.43
2018-12-16T01:13:05.953Z,17.27
2018-12-16T01:13:40.618Z,19.03
2018-12-16T01:14:15.595Z,17.90
2018-12-16T01:14:50.250Z,17.90
2018-12-16T01:15:25.008Z,18.50
2018-12-16T01:15:59.893Z,17.80
2018-12-16T01:16:35.020Z,17.90
2018-12-16T01:17:11.265Z,17.95
2018-12-16T01:17:46.042Z,18.37
2018-12-16T01:18:20.703Z,18.23
2018-12-16T01:18:55.339Z,18.30
2018-12-16T01:19:29.945Z,18.67
2018-12-16T01:20:06.836Z,17.80
2018-12-16T01:20:41.535Z,17.87
2018-12-16T01:21:16.669Z,18.23
2018-12-16T01:21:51.862Z,17.37
2018-12-16T01:22:26.502Z,18.47
2018-12-16T01:23:01.433Z,18.40
2018-12-16T01:23:36.043Z,18.43
2018-12-16T01:24:10.818Z,18.03
2018-12-16T01:24:45.636Z,18.43
2018-12-16T01:25:20.763Z,18.33
2018-12-16T01:25:55.377Z,18.13
2018-12-16T01:26:30.041Z,18.37
2018-12-16T01:27:05.307Z,17.83
2018-12-16T01:27:40.020Z,18.03
2018-12-16T01:28:14.940Z,17.20
2018-12-16T01:28:49.552Z,17.97
2018-12-16T01:29:24.363Z,17.87
2018-12-16T01:29:58.961Z,17.77
2018-12-16T01:30:33.692Z,19.70
2018-12-16T01:31:08.402Z,17.57
2018-12-16T01:31:44.086Z,18.60
2018-12-16T01:32:18.741Z,18.53
2018-12-16T01:32:53.379Z,17.70
2018-12-16T01:33:34.377Z,18.23
2018-12-16T01:34:09.105Z,18.03
2018-12-16T01:34:44.029Z,17.17
2018-12-16T01:35:18.685Z,19.23
2018-12-16T01:35:53.284Z,17.13
2018-12-16T01:36:27.918Z,18.47
2018-12-16T01:37:02.531Z,19.57
2018-12-16T01:37:38.348Z,18.13
2018-12-16T01:38:13.165Z,19.43
2018-12-16T01:38:47.994Z,18.27
2018-12-16T01:39:23.224Z,19.93
2018-12-16T01:39:57.840Z,18.47
2018-12-16T01:40:32.471Z,18.87
2018-12-16T01:41:07.297Z,17.70
2018-12-16T01:41:42.146Z,18.93
2018-12-16T01:42:17.186Z,18.62
2018-12-16T01:42:51.820Z,18.27
2018-12-16T01:43:26.426Z,19.17
2018-12-16T01:44:01.042Z,18.40
2018-12-16T01:44:35.664Z,18.90
2018-12-16T01:45:10.852Z,17.80
2018-12-16T01:45:45.584Z,18.07
2018-12-16T01:46:20.501Z,19.80
2018-12-16T01:46:55.120Z,19.27
2018-12-16T01:47:29.734Z,19.13
2018-12-16T01:48:04.803Z,18.47
2018-12-16T01:48:39.574Z,18.23
2018-12-16T01:49:15.063Z,18.30
2018-12-16T01:49:49.657Z,17.97
2018-12-16T01:50:24.273Z,18.30
2018-12-16T01:50:58.885Z,18.50
2018-12-16T01:51:33.532Z,19.27
2018-12-16T01:52:08.668Z,17.57
2018-12-16T01:52:49.971Z,18.00
2018-12-16T01:53:20.153Z,20.83
2018-12-16T01:53:54.839Z,18.27
2018-12-16T01:54:29.427Z,20.53
2018-12-16T01:55:05.069Z,18.13
2018-12-16T01:55:39.923Z,19.70
2018-12-16T01:56:14.945Z,18.50
2018-12-16T01:56:50.025Z,19.43
2018-12-16T01:57:24.659Z,18.57
2018-12-16T01:57:59.270Z,18.87
2018-12-16T01:58:33.913Z,19.87
2018-12-16T01:59:08.578Z,18.13
2018-12-16T01:59:43.376Z,19.07
2018-12-16T02:00:18.387Z,19.32
2018-12-16T02:00:53.004Z,20.13
2018-12-16T02:01:27.611Z,19.23
2018-12-16T02:02:02.707Z,17.98
2018-12-16T02:02:37.456Z,17.77
2018-12-16T02:03:12.224Z,19.30
2018-12-16T02:03:46.873Z,17.73
2018-12-16T02:04:21.470Z,18.07
2018-12-16T02:04:56.057Z,17.87
2018-12-16T02:05:30.701Z,17.93
2018-12-16T02:06:05.806Z,17.77
2018-12-16T02:06:40.597Z,18.47
2018-12-16T02:07:15.311Z,19.30
2018-12-16T02:07:49.910Z,18.53
2018-12-16T02:08:24.491Z,18.53
2018-12-16T02:08:59.097Z,18.53
2018-12-16T02:09:34.642Z,18.57
2018-12-16T02:10:10.285Z,18.40
2018-12-16T02:10:45.497Z,17.80
2018-12-16T02:11:20.092Z,18.27
2018-12-16T02:11:54.685Z,18.57
2018-12-16T02:12:29.274Z,17.63
2018-12-16T02:13:04.672Z,18.70
2018-12-16T02:13:39.793Z,19.00
2018-12-16T02:14:14.634Z,19.60
2018-12-16T02:14:49.747Z,18.87
2018-12-16T02:15:24.620Z,18.23
2018-12-16T02:15:59.216Z,19.17
2018-12-16T02:16:34.012Z,18.90
2018-12-16T02:17:08.777Z,19.03
2018-12-16T02:17:43.451Z,18.87
2018-12-16T02:18:18.082Z,17.90
2018-12-16T02:18:52.684Z,17.80
2018-12-16T02:19:27.862Z,19.67
2018-12-16T02:20:02.443Z,19.07
2018-12-16T02:20:37.067Z,17.80
2018-12-16T02:21:11.817Z,19.07
2018-12-16T02:21:46.648Z,18.17
2018-12-16T02:22:21.278Z,19.57
2018-12-16T02:22:57.039Z,19.70
2018-12-16T02:23:32.278Z,19.53
2018-12-16T02:24:06.876Z,18.57
2018-12-16T02:24:42.623Z,18.63
2018-12-16T02:25:17.747Z,19.00
2018-12-16T02:25:52.332Z,19.00
2018-12-16T02:26:27.016Z,18.97
2018-12-16T02:27:01.686Z,18.67
2018-12-16T02:27:36.276Z,18.50
2018-12-16T02:28:10.960Z,19.20
2018-12-16T02:28:45.696Z,19.73
2018-12-16T02:29:20.395Z,19.23
2018-12-16T02:29:54.991Z,19.33
2018-12-16T02:30:29.657Z,19.97
2018-12-16T02:31:04.725Z,18.23
2018-12-16T02:31:39.651Z,19.43
2018-12-16T02:32:14.314Z,18.73
2018-12-16T02:32:48.897Z,19.67
2018-12-16T02:33:23.506Z,19.47
2018-12-16T02:33:58.106Z,19.53
2018-12-16T02:34:32.776Z,19.00
2018-12-16T02:35:08.349Z,18.83
2018-12-16T02:35:43.223Z,19.77
2018-12-16T02:36:18.009Z,17.97
2018-12-16T02:36:52.697Z,18.53
2018-12-16T02:37:27.433Z,17.47
2018-12-16T02:38:02.016Z,19.10
2018-12-16T02:38:36.629Z,18.30
2018-12-16T02:39:11.403Z,18.40
2018-12-16T02:39:46.100Z,18.23
2018-12-16T02:40:20.825Z,18.03
2018-12-16T02:40:55.403Z,18.83
2018-12-16T02:41:30.101Z,19.67
2018-12-16T02:42:05.127Z,19.10
2018-12-16T02:42:39.778Z,19.67
2018-12-16T02:43:14.648Z,20.17
2018-12-16T02:43:49.268Z,19.10
2018-12-16T02:44:23.888Z,18.13
2018-12-16T02:44:58.495Z,19.17
2018-12-16T02:45:33.118Z,19.63
2018-12-16T02:46:07.731Z,19.60
2018-12-16T02:46:42.783Z,18.33
2018-12-16T02:47:17.493Z,18.20
2018-12-16T02:47:52.134Z,18.23
2018-12-16T02:48:26.733Z,18.50
2018-12-16T02:49:01.440Z,18.13
2018-12-16T02:49:36.076Z,19.23
2018-12-16T02:50:10.758Z,19.90
2018-12-16T02:50:45.448Z,18.50
2018-12-16T02:51:20.054Z,18.47
2018-12-16T02:51:54.649Z,18.30
2018-12-16T02:52:29.248Z,19.70
2018-12-16T02:53:04.732Z,18.50
2018-12-16T02:53:39.938Z,18.70
2018-12-16T02:54:14.785Z,19.13
2018-12-16T02:54:49.388Z,18.97
2018-12-16T02:55:24.362Z,18.50
2018-12-16T02:55:58.958Z,18.93
2018-12-16T02:56:33.584Z,19.47
2018-12-16T02:57:08.756Z,17.90
2018-12-16T02:57:43.661Z,17.97
2018-12-16T02:58:18.284Z,18.17
2018-12-16T02:58:52.925Z,18.97
2018-12-16T02:59:27.594Z,18.90
2018-12-16T03:00:02.198Z,18.90
2018-12-16T03:00:36.928Z,18.40
2018-12-16T03:01:11.666Z,18.30
2018-12-16T03:01:48.300Z,17.77
2018-12-16T03:02:22.921Z,18.13
2018-12-16T03:02:57.527Z,18.60
2018-12-16T03:03:32.164Z,18.63
2018-12-16T03:04:06.950Z,18.83
2018-12-16T03:04:41.923Z,17.53
2018-12-16T03:05:16.834Z,18.47
2018-12-16T03:05:51.540Z,18.37
2018-12-16T03:06:26.224Z,19.63
2018-12-16T03:07:00.947Z,17.63
2018-12-16T03:07:35.549Z,17.93
2018-12-16T03:08:10.334Z,17.50
2018-12-16T03:08:45.439Z,17.97
2018-12-16T03:09:20.140Z,18.87
2018-12-16T03:09:54.768Z,17.93
2018-12-16T03:10:29.428Z,18.87
2018-12-16T03:11:04.960Z,18.00
2018-12-16T03:11:39.876Z,17.87
2018-12-16T03:12:14.829Z,18.37
2018-12-16T03:12:49.560Z,18.17
2018-12-16T03:13:24.446Z,18.23
2018-12-16T03:13:59.092Z,18.33
2018-12-16T03:14:33.805Z,17.97
2018-12-16T03:15:09.097Z,18.53
2018-12-16T03:15:44.129Z,17.83
2018-12-16T03:16:18.943Z,18.50
2018-12-16T03:16:53.588Z,17.10
2018-12-16T03:17:28.242Z,17.67
2018-12-16T03:18:02.917Z,17.47
2018-12-16T03:18:37.624Z,17.87
2018-12-16T03:19:12.552Z,17.63
2018-12-16T03:19:47.281Z,17.73
2018-12-16T03:20:22.166Z,17.57
2018-12-16T03:20:56.785Z,18.47
2018-12-16T03:21:31.433Z,18.03
2018-12-16T03:22:06.624Z,17.67
2018-12-16T03:22:41.565Z,18.67
2018-12-16T03:23:16.405Z,18.43
2018-12-16T03:23:51.054Z,16.50
2018-12-16T03:24:25.710Z,18.50
2018-12-16T03:25:00.315Z,18.33
2018-12-16T03:25:35.261Z,18.67
2018-12-16T03:26:10.000Z,16.80
2018-12-16T03:26:44.852Z,19.53
2018-12-16T03:27:19.536Z,17.47
2018-12-16T03:27:54.205Z,17.77
2018-12-16T03:28:28.826Z,18.10
2018-12-16T03:29:03.491Z,16.63
2018-12-16T03:29:38.718Z,18.40
2018-12-16T03:30:14.049Z,17.57
2018-12-16T03:30:49.092Z,18.30
2018-12-16T03:31:23.683Z,18.40
2018-12-16T03:31:58.312Z,18.33
2018-12-16T03:32:33.077Z,17.27
2018-12-16T03:33:07.708Z,18.07
2018-12-16T03:33:42.987Z,18.17
2018-12-16T03:34:18.068Z,17.73
2018-12-16T03:34:52.665Z,17.93
2018-12-16T03:35:27.278Z,17.33
2018-12-16T03:36:01.881Z,17.90
2018-12-16T03:36:36.501Z,18.40
2018-12-16T03:37:11.532Z,17.93
2018-12-16T03:37:46.378Z,17.50
2018-12-16T03:38:21.027Z,17.23
2018-12-16T03:38:55.664Z,18.43
2018-12-16T03:39:30.415Z,18.43
2018-12-16T03:40:05.861Z,18.20
2018-12-16T03:40:40.540Z,18.17
2018-12-16T03:41:15.538Z,17.37
2018-12-16T03:41:50.157Z,18.20
2018-12-16T03:42:24.768Z,18.53
2018-12-16T03:42:59.365Z,18.73
2018-12-16T03:43:33.977Z,18.63
2018-12-16T03:44:08.669Z,18.07
2018-12-16T03:44:43.405Z,17.67
2018-12-16T03:45:18.026Z,19.03
2018-12-16T03:45:52.652Z,17.73
2018-12-16T03:46:27.724Z,18.33
2018-12-16T03:47:02.334Z,17.17
2018-12-16T03:47:36.958Z,18.40
2018-12-16T03:48:11.867Z,17.50
2018-12-16T03:48:46.826Z,18.13
2018-12-16T03:49:21.538Z,18.40
2018-12-16T03:49:56.548Z,18.23
2018-12-16T03:50:31.235Z,17.93
2018-12-16T03:51:06.297Z,17.43
2018-12-16T03:51:41.267Z,18.50
2018-12-16T03:52:16.065Z,18.00
2018-12-16T03:52:50.686Z,18.73
2018-12-16T03:53:25.306Z,18.87
2018-12-16T03:53:59.956Z,17.33
2018-12-16T03:54:34.678Z,18.53
2018-12-16T03:55:09.487Z,17.20
2018-12-16T03:55:44.284Z,18.33
2018-12-16T03:56:19.414Z,18.20
2018-12-16T03:56:54.048Z,17.67
2018-12-16T03:57:28.665Z,18.13
2018-12-16T03:58:03.278Z,18.43
2018-12-16T03:58:44.418Z,18.07
2018-12-16T03:59:19.976Z,17.33
2018-12-16T03:59:54.583Z,17.40
2018-12-16T04:00:29.193Z,17.17
2018-12-16T04:01:04.360Z,18.73
2018-12-16T04:01:39.671Z,18.00
2018-12-16T04:02:14.449Z,17.87
2018-12-16T04:02:49.584Z,18.73
2018-12-16T04:03:24.179Z,18.67
2018-12-16T04:03:58.993Z,17.60
2018-12-16T04:04:33.651Z,19.07
2018-12-16T04:05:08.635Z,17.53
2018-12-16T04:05:43.469Z,19.43
2018-12-16T04:06:18.483Z,18.23
2018-12-16T04:06:54.051Z,16.73
2018-12-16T04:07:28.723Z,18.90
2018-12-16T04:08:03.804Z,17.47
2018-12-16T04:08:39.721Z,18.30
2018-12-16T04:09:14.529Z,18.67
2018-12-16T04:09:49.202Z,17.73
2018-12-16T04:10:23.801Z,18.00
2018-12-16T04:10:58.541Z,17.83
2018-12-16T04:11:33.191Z,18.23
2018-12-16T04:12:07.973Z,17.77
2018-12-16T04:12:42.769Z,18.37
2018-12-16T04:13:17.703Z,18.48
2018-12-16T04:13:52.349Z,18.77
2018-12-16T04:14:27.046Z,18.63
2018-12-16T04:15:01.763Z,17.77
2018-12-16T04:15:36.631Z,17.37
2018-12-16T04:16:11.420Z,19.23
2018-12-16T04:16:46.257Z,17.57
2018-12-16T04:17:20.876Z,18.13
2018-12-16T04:17:55.506Z,19.37
2018-12-16T04:18:30.108Z,18.70
2018-12-16T04:19:05.209Z,17.93
2018-12-16T04:19:39.928Z,18.50
2018-12-16T04:20:14.616Z,18.17
2018-12-16T04:20:49.265Z,18.43
2018-12-16T04:21:23.973Z,19.83
2018-12-16T04:21:58.650Z,18.50
2018-12-16T04:22:33.279Z,17.40
2018-12-16T04:23:07.903Z,18.90
2018-12-16T04:23:42.729Z,18.10
2018-12-16T04:24:17.432Z,18.90
2018-12-16T04:24:52.080Z,18.37
2018-12-16T04:25:27.029Z,18.30
2018-12-16T04:26:01.615Z,19.43
2018-12-16T04:26:36.317Z,17.40
2018-12-16T04:27:10.988Z,19.17
2018-12-16T04:27:45.877Z,17.90
2018-12-16T04:28:20.559Z,18.53
2018-12-16T04:28:55.625Z,18.40
2018-12-16T04:29:30.264Z,18.60
2018-12-16T04:30:06.539Z,18.53
2018-12-16T04:30:41.362Z,17.60
2018-12-16T04:31:16.068Z,18.07
2018-12-16T04:31:50.678Z,17.77
2018-12-16T04:32:25.293Z,17.30
2018-12-16T04:32:59.918Z,16.63
2018-12-16T04:33:34.925Z,18.40
2018-12-16T04:34:09.627Z,18.00
2018-12-16T04:34:44.444Z,18.67
2018-12-16T04:35:19.104Z,17.60
2018-12-16T04:35:53.885Z,18.13
2018-12-16T04:36:28.496Z,19.17
2018-12-16T04:37:03.117Z,18.20
2018-12-16T04:37:37.769Z,18.50
2018-12-16T04:38:12.741Z,18.63
2018-12-16T04:38:47.434Z,18.53
2018-12-16T04:39:22.173Z,17.97
2018-12-16T04:39:56.807Z,17.90
2018-12-16T04:40:31.513Z,18.27
2018-12-16T04:41:06.147Z,18.60
2018-12-16T04:41:41.049Z,18.43
2018-12-16T04:42:16.013Z,19.27
2018-12-16T04:42:50.643Z,18.03
2018-12-16T04:43:25.255Z,18.67
2018-12-16T04:43:59.997Z,18.03
2018-12-16T04:44:34.623Z,19.00
2018-12-16T04:45:09.770Z,18.20
2018-12-16T04:45:44.687Z,18.53
2018-12-16T04:46:19.270Z,18.57
2018-12-16T04:46:53.914Z,18.50
2018-12-16T04:47:28.523Z,19.00
2018-12-16T04:48:03.392Z,18.57
2018-12-16T04:48:38.204Z,17.13
2018-12-16T04:49:12.929Z,18.30
2018-12-16T04:49:47.609Z,19.23
2018-12-16T04:50:22.235Z,18.43
2018-12-16T04:50:56.828Z,18.20
2018-12-16T04:51:31.441Z,18.97
2018-12-16T04:52:06.204Z,18.83
2018-12-16T04:52:41.028Z,18.50
2018-12-16T04:53:15.742Z,17.37
2018-12-16T04:53:50.552Z,19.13
2018-12-16T04:54:25.200Z,19.53
2018-12-16T04:54:59.887Z,19.53
2018-12-16T04:55:34.981Z,19.87
2018-12-16T04:56:09.753Z,19.77
2018-12-16T04:56:44.546Z,18.77
2018-12-16T04:57:19.155Z,19.33
2018-12-16T04:57:53.808Z,19.60
2018-12-16T04:58:28.421Z,19.73
2018-12-16T04:59:03.042Z,20.87
2018-12-16T04:59:37.702Z,19.43
2018-12-16T05:00:12.702Z,20.23
2018-12-16T05:00:47.561Z,20.87
2018-12-16T05:01:22.188Z,19.33
2018-12-16T05:01:56.782Z,20.80
2018-12-16T05:02:31.411Z,21.07
2018-12-16T05:03:06.006Z,19.67
2018-12-16T05:03:41.023Z,20.63
2018-12-16T05:04:15.672Z,21.77
2018-12-16T05:04:50.288Z,23.53
2018-12-16T05:05:24.884Z,22.00
2018-12-16T05:05:59.489Z,21.27
2018-12-16T05:06:34.126Z,22.33
2018-12-16T05:07:09.296Z,23.97
2018-12-16T05:07:45.273Z,23.87
2018-12-16T05:08:19.860Z,23.83
2018-12-16T05:08:54.526Z,24.83
2018-12-16T05:09:29.145Z,24.67
2018-12-16T05:10:14.901Z,24.60
2018-12-16T05:10:49.618Z,23.93
2018-12-16T05:11:24.661Z,24.13
2018-12-16T05:11:59.382Z,26.50
2018-12-16T05:12:34.099Z,23.80
2018-12-16T05:13:09.018Z,25.60
2018-12-16T05:13:43.757Z,24.83
2018-12-16T05:14:18.441Z,25.63
2018-12-16T05:14:53.083Z,26.17
2018-12-16T05:15:28.150Z,25.30
2018-12-16T05:16:02.750Z,27.17
2018-12-16T05:16:37.653Z,25.97
2018-12-16T05:17:12.469Z,25.80
2018-12-16T05:17:47.383Z,25.37
2018-12-16T05:18:22.068Z,25.93
2018-12-16T05:18:56.656Z,27.33
2018-12-16T05:19:31.316Z,27.33
2018-12-16T05:20:07.071Z,27.17
2018-12-16T05:20:41.782Z,27.10
2018-12-16T05:21:16.744Z,26.77
2018-12-16T05:21:51.331Z,27.37
2018-12-16T05:22:25.981Z,27.90
2018-12-16T05:23:00.589Z,28.40
2018-12-16T05:23:41.658Z,27.90
2018-12-16T05:24:11.924Z,26.87
2018-12-16T05:24:46.946Z,27.23
2018-12-16T05:25:21.672Z,27.40
2018-12-16T05:25:56.250Z,25.33
2018-12-16T05:26:30.863Z,28.30
2018-12-16T05:27:05.469Z,27.30
2018-12-16T05:27:40.276Z,27.40
2018-12-16T05:28:14.988Z,26.43
2018-12-16T05:28:49.781Z,28.13
2018-12-16T05:29:24.417Z,28.50
2018-12-16T05:29:59.069Z,27.03
2018-12-16T05:30:33.676Z,26.77
2018-12-16T05:31:08.441Z,28.10
2018-12-16T05:31:43.469Z,28.07
2018-12-16T05:32:18.326Z,27.03
2018-12-16T05:32:52.923Z,27.13
2018-12-16T05:33:27.523Z,25.13
2018-12-16T05:34:02.157Z,25.50
2018-12-16T05:34:36.797Z,26.03
2018-12-16T05:35:11.698Z,25.77
2018-12-16T05:35:46.541Z,26.73
2018-12-16T05:36:21.191Z,26.73
2018-12-16T05:36:55.795Z,25.90
2018-12-16T05:37:30.458Z,25.93
2018-12-16T05:38:05.067Z,26.37
2018-12-16T05:38:39.839Z,27.73
2018-12-16T05:39:14.847Z,26.97
2018-12-16T05:39:49.487Z,26.43
2018-12-16T05:40:24.103Z,28.17
2018-12-16T05:40:58.741Z,25.20
2018-12-16T05:41:33.362Z,27.00
2018-12-16T05:42:08.083Z,27.27
2018-12-16T05:42:42.852Z,25.67
2018-12-16T05:43:17.778Z,25.80
2018-12-16T05:43:52.489Z,25.87
2018-12-16T05:44:27.113Z,24.90
2018-12-16T05:45:01.722Z,24.60
2018-12-16T05:45:36.294Z,26.33
2018-12-16T05:46:11.110Z,24.87
2018-12-16T05:46:46.395Z,25.73
2018-12-16T05:47:21.096Z,26.90
2018-12-16T05:47:56.482Z,27.97
2018-12-16T05:48:31.032Z,25.80
2018-12-16T05:49:05.660Z,25.03
2018-12-16T05:49:40.853Z,26.00
2018-12-16T05:50:15.870Z,24.53
2018-12-16T05:50:50.497Z,26.50
2018-12-16T05:51:25.064Z,25.33
2018-12-16T05:51:59.685Z,27.23
2018-12-16T05:52:34.316Z,26.17
2018-12-16T05:53:09.566Z,25.67
2018-12-16T05:53:48.615Z,26.70
2018-12-16T05:54:20.917Z,24.53
2018-12-16T05:54:55.523Z,24.37
2018-12-16T05:55:30.090Z,26.10
2018-12-16T05:56:05.126Z,27.33
2018-12-16T05:56:40.470Z,25.72
2018-12-16T05:57:15.123Z,26.57
2018-12-16T05:57:49.761Z,25.80
2018-12-16T05:58:24.361Z,25.50
2018-12-16T05:58:58.964Z,25.23
2018-12-16T05:59:33.647Z,24.37
2018-12-16T06:00:09.265Z,24.57
2018-12-16T06:00:44.162Z,25.20
2018-12-16T06:01:18.834Z,24.10
2018-12-16T06:01:53.441Z,24.23
2018-12-16T06:02:28.037Z,24.77
2018-12-16T06:03:02.732Z,25.97
2018-12-16T06:03:37.391Z,24.27
2018-12-16T06:04:12.528Z,25.13
2018-12-16T06:04:47.394Z,24.63
2018-12-16T06:05:22.046Z,24.33
2018-12-16T06:05:56.836Z,26.83
2018-12-16T06:06:31.430Z,25.57
2018-12-16T06:07:06.492Z,24.97
2018-12-16T06:07:41.264Z,24.87
2018-12-16T06:08:15.900Z,25.13
2018-12-16T06:08:50.712Z,25.53
2018-12-16T06:09:25.313Z,24.23
2018-12-16T06:10:00.210Z,25.05
2018-12-16T06:10:35.144Z,23.98
2018-12-16T06:11:09.772Z,24.90
2018-12-16T06:11:44.687Z,24.97
2018-12-16T06:12:19.528Z,24.43
2018-12-16T06:12:54.320Z,24.23
2018-12-16T06:13:28.908Z,23.00
2018-12-16T06:14:04.324Z,23.90
2018-12-16T06:14:39.945Z,24.00
2018-12-16T06:15:15.283Z,25.05
2018-12-16T06:15:49.868Z,23.83
2018-12-16T06:16:24.768Z,24.72
2018-12-16T06:16:59.674Z,23.10
2018-12-16T06:17:34.541Z,24.37
2018-12-16T06:18:09.799Z,24.10
2018-12-16T06:18:44.780Z,23.73
2018-12-16T06:19:19.723Z,25.43
2018-12-16T06:19:54.775Z,25.00
2018-12-16T06:20:29.665Z,23.95
2018-12-16T06:21:04.322Z,24.33
2018-12-16T06:21:39.728Z,24.27
2018-12-16T06:22:14.732Z,24.40
2018-12-16T06:22:49.671Z,25.30
2018-12-16T06:23:30.919Z,24.80
2018-12-16T06:24:06.252Z,24.92
2018-12-16T06:24:41.290Z,25.15
2018-12-16T06:25:16.441Z,24.23
2018-12-16T06:25:51.344Z,24.27
2018-12-16T06:26:25.931Z,24.50
2018-12-16T06:27:00.561Z,22.97
2018-12-16T06:27:35.186Z,25.27
2018-12-16T06:28:10.167Z,25.10
2018-12-16T06:28:44.886Z,25.17
2018-12-16T06:29:19.523Z,25.20
2018-12-16T06:29:54.491Z,24.50
2018-12-16T06:30:32.652Z,23.53
2018-12-16T06:31:07.275Z,24.53
2018-12-16T06:31:42.097Z,25.03
2018-12-16T06:32:16.768Z,25.33
2018-12-16T06:32:51.659Z,24.25
2018-12-16T06:33:26.266Z,25.83
2018-12-16T06:34:00.842Z,24.73
2018-12-16T06:34:35.452Z,24.10
2018-12-16T06:35:10.175Z,25.77
2018-12-16T06:35:45.292Z,25.07
2018-12-16T06:36:19.930Z,24.00
2018-12-16T06:36:54.546Z,25.33
2018-12-16T06:37:29.159Z,24.53
2018-12-16T06:38:03.783Z,25.20
2018-12-16T06:38:38.486Z,24.80
2018-12-16T06:39:13.159Z,26.60
2018-12-16T06:39:47.974Z,26.60
2018-12-16T06:40:23.042Z,25.47
2018-12-16T06:40:57.690Z,25.50
2018-12-16T06:41:32.453Z,26.27
2018-12-16T06:42:07.052Z,26.87
2018-12-16T06:42:41.728Z,25.00
2018-12-16T06:43:16.350Z,25.63
2018-12-16T06:43:50.956Z,27.10
2018-12-16T06:44:25.538Z,28.03
2018-12-16T06:45:00.158Z,26.07
2018-12-16T06:45:34.738Z,26.23
2018-12-16T06:46:09.526Z,26.03
2018-12-16T06:46:44.775Z,26.73
2018-12-16T06:47:19.400Z,26.80
2018-12-16T06:47:54.025Z,27.30
2018-12-16T06:48:28.608Z,27.27
2018-12-16T06:49:03.504Z,26.70
2018-12-16T06:49:38.453Z,27.90
2018-12-16T06:50:13.145Z,28.40
2018-12-16T06:50:47.818Z,27.37
2018-12-16T06:51:22.414Z,27.50
2018-12-16T06:51:56.990Z,26.83
2018-12-16T06:52:31.586Z,28.50
2018-12-16T06:53:06.468Z,27.62
2018-12-16T06:53:41.226Z,28.23
2018-12-16T06:54:15.898Z,28.57
2018-12-16T06:54:50.572Z,28.20
2018-12-16T06:55:25.141Z,29.03
2018-12-16T06:56:06.497Z,28.47
2018-12-16T06:56:36.361Z,28.07
2018-12-16T06:57:12.209Z,28.07
2018-12-16T06:57:46.900Z,27.90
2018-12-16T06:58:21.571Z,27.63
2018-12-16T06:58:56.254Z,27.70
2018-12-16T06:59:30.845Z,29.33
2018-12-16T07:00:07.030Z,29.03
2018-12-16T07:00:42.630Z,28.70
2018-12-16T07:01:17.578Z,28.57
2018-12-16T07:01:52.498Z,28.25
2018-12-16T07:02:27.121Z,30.53
2018-12-16T07:03:01.840Z,30.37
2018-12-16T07:03:36.523Z,30.83
2018-12-16T07:04:11.813Z,29.80
2018-12-16T07:04:47.132Z,29.50
2018-12-16T07:05:22.609Z,28.95
2018-12-16T07:05:57.518Z,30.32
2018-12-16T07:06:32.404Z,31.07
2018-12-16T07:07:07.328Z,30.62
2018-12-16T07:07:42.457Z,32.03
2018-12-16T07:08:17.473Z,32.83
2018-12-16T07:08:52.369Z,30.85
2018-12-16T07:09:26.953Z,30.97
2018-12-16T07:10:01.573Z,31.27
2018-12-16T07:10:36.836Z,30.40
2018-12-16T07:11:11.869Z,31.97
2018-12-16T07:11:46.871Z,32.03
2018-12-16T07:12:21.778Z,31.57
2018-12-16T07:12:56.842Z,30.67
2018-12-16T07:13:31.758Z,30.77
2018-12-16T07:14:06.702Z,30.02
2018-12-16T07:14:41.822Z,30.57
2018-12-16T07:15:17.440Z,30.10
2018-12-16T07:15:52.347Z,29.32
2018-12-16T07:16:27.255Z,29.48
2018-12-16T07:17:02.159Z,29.37
2018-12-16T07:17:37.542Z,27.95
2018-12-16T07:18:12.884Z,27.80
2018-12-16T07:18:48.170Z,29.57
2018-12-16T07:19:22.762Z,29.90
2018-12-16T07:19:57.826Z,29.70
2018-12-16T07:20:32.955Z,29.98
2018-12-16T07:21:07.893Z,29.32
2018-12-16T07:21:43.055Z,29.80
2018-12-16T07:22:18.044Z,29.15
2018-12-16T07:22:53.226Z,29.77
2018-12-16T07:23:28.524Z,29.32
2018-12-16T07:24:09.236Z,28.77
2018-12-16T07:24:41.663Z,27.80
2018-12-16T07:25:16.606Z,28.47
2018-12-16T07:25:51.613Z,27.37
2018-12-16T07:26:26.575Z,28.75
2018-12-16T07:27:01.201Z,27.50
2018-12-16T07:27:35.818Z,28.57
2018-12-16T07:28:11.400Z,29.20
2018-12-16T07:28:46.998Z,29.05
2018-12-16T07:29:21.946Z,28.85
2018-12-16T07:29:56.567Z,27.17